New Richmond, Canada
Current Conditions -  °F | °C
As of 11:00 AM on Wednesday 26 Nov 2014 (Local Time) from CZBF Reporting Station
Overcast Overcast  
Wind Chill: 31°   Ceiling: 14000
Heat Index: 37°   Visibility: 15mi
Dew Point: 21°   Wind: 9mph
Humidity: 52%   Direction: 300°WNW
Pressure: 30.16"   Gusts: 17mph
Location:  48.17°N, 65.83°W
Report Text: CZBF 261600Z 30008G15KT 15SM FEW030 OVC140 03/M06 A3016 RMK SC1AS8 SC TR SLP216
Loading
Personal Weather Stations






























Interactive Weather Map New forecast layout! Learn more

10-Day Weather Forecast

Advertisements
Track Severe Weather on mobile